Time;durP1;ratioP1;P1;durP2;ratioP2;P2;SDS_P1;SDS_P2;PMS_P1;PMS_P2;Temp;Humidity;BMP_temperature;BMP_pressure;BME280_temperature;BME280_humidity;BME280_pressure;Samples;Min_cycle;Max_cycle;Signal;HPM_P1;HPM_P2
2022/03/02 00:01:25;;;;;;;;;;;;;;;0.31;73.65;101603.38;5039413;28;1592;-83
2022/03/02 00:03:50;;;;;;;;;;;;;;;0.42;73.75;101599.38;5046747;28;1377;-84
2022/03/02 00:06:15;;;;;;;;;;;;;;;0.48;73.74;101598.63;5044599;28;1608;-83
2022/03/02 00:08:41;;;;;;;;;;;;;;;0.49;73.70;101589.50;5041267;28;1382;-83
2022/03/02 00:11:06;;;;;;;;;;;;;;;0.37;73.75;101594.53;5041439;28;1493;-83
2022/03/02 00:13:31;;;;;;;;;;;;;;;0.51;73.68;101594.72;5040489;28;1775;-83
2022/03/02 00:15:56;;;;;;;;;;;;;;;0.39;73.48;101586.28;5046785;28;1160;-83
2022/03/02 00:18:22;;;;;;;;;;;;;;;0.36;73.94;101589.31;5038515;28;1870;-83
2022/03/02 00:20:47;;;;;;;;;;;;;;;0.45;74.05;101579.28;5056507;28;1637;-83
2022/03/02 00:23:12;;;;;;;;;;;;;;;0.56;73.98;101579.66;5043817;28;1347;-83
2022/03/02 00:25:37;;;;;;;;;;;;;;;0.59;73.81;101584.66;5036652;28;1407;-83
2022/03/02 00:28:03;;;;;;;;;;;;;;;0.56;74.02;101595.81;5050356;28;1382;-83
2022/03/02 00:30:30;;;;;;;;;;;;;;;0.52;74.17;101590.97;5069853;28;1565;-84
2022/03/02 00:32:55;;;;;;;;;;;;;;;0.40;74.49;101587.09;5039245;28;1397;-82
2022/03/02 00:35:20;;;;;;;;;;;;;;;0.47;74.58;101588.84;5026414;28;1435;-83
2022/03/02 00:37:46;;;;;;;;;;;;;;;0.56;74.46;101586.91;5036582;28;1894;-83
2022/03/02 00:40:12;;;;;;;;;;;;;;;0.56;74.50;101578.81;5035725;28;1503;-83
2022/03/02 00:42:37;;;;;;;;;;;;;;;0.44;74.66;101580.31;5030925;28;1282;-83
2022/03/02 00:45:02;;;;;;;;;;;;;;;0.51;74.51;101581.25;5045273;28;1400;-83
2022/03/02 00:47:27;;;;;;;;;;;;;;;0.51;74.70;101586.63;5031753;28;1476;-83
2022/03/02 00:49:53;;;;;;;;;;;;;;;0.51;74.70;101586.63;5038011;28;1494;-84
2022/03/02 00:52:18;;;;;;;;;;;;;;;0.44;74.78;101581.13;5037917;28;1698;-84
2022/03/02 00:54:43;;;;;;;;;;;;;;;0.38;75.22;101577.34;5036477;28;1607;-83
2022/03/02 00:57:08;;;;;;;;;;;;;;;0.34;75.06;101576.03;5052473;28;1886;-84
2022/03/02 00:59:33;;;;;;;;;;;;;;;0.36;75.54;101574.00;5052742;28;1725;-83
2022/03/02 01:01:59;;;;;;;;;;;;;;;0.47;75.60;101569.16;5037833;28;1530;-83
2022/03/02 01:04:24;;;;;;;;;;;;;;;0.52;75.54;101572.94;5025161;28;1153;-83
2022/03/02 01:06:49;;;;;;;;;;;;;;;0.51;75.33;101565.91;5037179;28;1160;-83
2022/03/02 01:09:14;;;;;;;;;;;;;;;0.27;75.16;101567.03;5035801;28;1771;-83
2022/03/02 01:11:40;;;;;;;;;;;;;;;0.14;75.81;101574.13;5053153;28;1681;-83
2022/03/02 01:14:05;;;;;;;;;;;;;;;-0.05;76.16;101567.44;5037182;28;1668;-84
2022/03/02 01:16:30;;;;;;;;;;;;;;;0.07;76.49;101567.81;5036732;28;1902;-84
2022/03/02 01:18:55;;;;;;;;;;;;;;;0.27;76.35;101561.66;5039209;28;1633;-83
2022/03/02 01:21:20;;;;;;;;;;;;;;;0.26;76.09;101562.69;5053838;28;1837;-83
2022/03/02 01:23:46;;;;;;;;;;;;;;;0.12;76.39;101563.53;5053943;28;1862;-83
2022/03/02 01:26:11;;;;;;;;;;;;;;;0.23;76.57;101571.16;5038690;28;1790;-84
2022/03/02 01:28:36;;;;;;;;;;;;;;;0.28;76.56;101555.25;5053789;28;1680;-83
2022/03/02 01:31:01;;;;;;;;;;;;;;;0.35;76.42;101558.03;5052997;28;1845;-84
2022/03/02 01:33:27;;;;;;;;;;;;;;;0.41;76.22;101543.84;5053725;28;1912;-84
2022/03/02 01:35:52;;;;;;;;;;;;;;;0.47;76.21;101550.31;5052673;28;1360;-83
2022/03/02 01:38:17;;;;;;;;;;;;;;;0.48;75.99;101547.44;5033358;28;1889;-83
2022/03/02 01:40:42;;;;;;;;;;;;;;;0.47;75.95;101542.22;5038244;28;1540;-83
2022/03/02 01:43:07;;;;;;;;;;;;;;;0.49;75.95;101545.56;5050084;28;1456;-83
2022/03/02 01:45:33;;;;;;;;;;;;;;;0.48;75.90;101528.59;5035019;28;1542;-83
2022/03/02 01:47:59;;;;;;;;;;;;;;;0.32;75.90;101532.34;5037936;28;1472;-83
2022/03/02 01:50:24;;;;;;;;;;;;;;;0.25;76.11;101533.28;5054072;28;1228;-83
2022/03/02 01:52:49;;;;;;;;;;;;;;;0.41;76.03;101529.53;5037221;28;1765;-83
2022/03/02 01:55:15;;;;;;;;;;;;;;;0.42;75.93;101537.44;5038102;28;1476;-83
2022/03/02 01:57:41;;;;;;;;;;;;;;;0.43;76.02;101524.75;5035808;28;1894;-83
2022/03/02 02:00:07;;;;;;;;;;;;;;;0.36;76.24;101519.31;5053666;28;1670;-83
2022/03/02 02:02:32;;;;;;;;;;;;;;;0.36;76.20;101522.00;5036307;28;1770;-83
2022/03/02 02:04:57;;;;;;;;;;;;;;;0.31;76.36;101516.34;5036595;28;1445;-83
2022/03/02 02:07:23;;;;;;;;;;;;;;;0.32;76.45;101507.25;5034435;28;1344;-83
2022/03/02 02:09:48;;;;;;;;;;;;;;;0.26;76.46;101503.44;5036628;28;1797;-83
2022/03/02 02:12:13;;;;;;;;;;;;;;;0.27;76.37;101507.81;5051660;28;1583;-82
2022/03/02 02:14:38;;;;;;;;;;;;;;;0.24;76.62;101496.59;5029022;28;1572;-84
2022/03/02 02:17:03;;;;;;;;;;;;;;;0.23;76.69;101495.75;5034165;28;1898;-84
2022/03/02 02:19:29;;;;;;;;;;;;;;;0.28;76.63;101500.56;5042760;28;1671;-83
2022/03/02 02:21:54;;;;;;;;;;;;;;;0.24;76.62;101500.13;5031606;28;1689;-83
2022/03/02 02:24:19;;;;;;;;;;;;;;;-0.02;76.62;101494.41;5052962;28;1678;-83
2022/03/02 02:26:45;;;;;;;;;;;;;;;-0.12;76.92;101499.22;5038390;28;1748;-83
2022/03/02 02:29:10;;;;;;;;;;;;;;;0.00;77.41;101489.69;5034913;28;1588;-83
2022/03/02 02:31:35;;;;;;;;;;;;;;;-0.02;77.65;101495.25;5054583;28;1635;-84
2022/03/02 02:34:00;;;;;;;;;;;;;;;0.09;77.74;101487.69;5037841;28;1547;-83
2022/03/02 02:36:25;;;;;;;;;;;;;;;0.06;77.53;101488.91;5054338;28;1968;-83
2022/03/02 02:38:51;;;;;;;;;;;;;;;-0.01;77.46;101483.47;5033771;28;1457;-84
2022/03/02 02:41:16;;;;;;;;;;;;;;;-0.05;77.71;101487.53;5026948;28;1463;-83
2022/03/02 02:43:42;;;;;;;;;;;;;;;0.05;77.89;101478.34;5053634;28;1471;-84
2022/03/02 02:46:08;;;;;;;;;;;;;;;0.11;77.63;101483.78;5033095;28;1441;-84
2022/03/02 02:48:33;;;;;;;;;;;;;;;0.09;77.60;101483.16;5028618;28;1534;-84
2022/03/02 02:50:58;;;;;;;;;;;;;;;0.06;77.76;101480.00;5040504;28;1292;-84
2022/03/02 02:53:23;;;;;;;;;;;;;;;0.02;77.61;101478.69;5056737;28;1665;-84
2022/03/02 02:55:50;;;;;;;;;;;;;;;0.11;77.56;101477.56;5053710;28;1586;-84
2022/03/02 02:58:15;;;;;;;;;;;;;;;0.07;77.46;101466.38;5024141;28;1875;-84
2022/03/02 03:00:42;;;;;;;;;;;;;;;0.14;77.43;101464.59;5029813;28;1581;-84
2022/03/02 03:03:07;;;;;;;;;;;;;;;0.18;77.52;101459.63;5044532;28;2142;-84
2022/03/02 03:05:33;;;;;;;;;;;;;;;0.15;77.42;101463.56;5047385;28;1469;-84
2022/03/02 03:07:59;;;;;;;;;;;;;;;0.08;77.35;101462.66;5056429;28;1802;-84
2022/03/02 03:10:25;;;;;;;;;;;;;;;0.09;77.61;101458.06;5056564;28;1681;-83
2022/03/02 03:12:51;;;;;;;;;;;;;;;0.09;77.49;101452.69;5041611;28;1626;-83
2022/03/02 03:15:17;;;;;;;;;;;;;;;0.08;77.65;101464.50;5040541;28;1591;-84
2022/03/02 03:17:42;;;;;;;;;;;;;;;-0.04;77.53;101461.47;5056393;28;1897;-84
2022/03/02 03:20:08;;;;;;;;;;;;;;;-0.23;78.11;101459.34;5056741;28;1304;-84
2022/03/02 03:22:34;;;;;;;;;;;;;;;-0.09;78.42;101453.13;5055541;28;1630;-83
2022/03/02 03:24:59;;;;;;;;;;;;;;;0.01;78.20;101456.34;5032248;28;1497;-84
2022/03/02 03:27:24;;;;;;;;;;;;;;;-0.07;78.32;101454.59;5041202;28;1717;-84
2022/03/02 03:29:49;;;;;;;;;;;;;;;0.00;78.39;101455.50;5042623;28;1771;-84
2022/03/02 03:32:15;;;;;;;;;;;;;;;-0.05;78.44;101449.84;5040996;28;1745;-84
2022/03/02 03:34:40;;;;;;;;;;;;;;;0.02;78.53;101444.56;5056110;28;1744;-84
2022/03/02 03:37:06;;;;;;;;;;;;;;;0.11;78.18;101453.34;5041446;28;1883;-84
2022/03/02 03:39:31;;;;;;;;;;;;;;;0.04;78.24;101455.13;5049118;28;1756;-84
2022/03/02 03:41:56;;;;;;;;;;;;;;;-0.07;78.51;101446.50;5044602;28;1677;-84
2022/03/02 03:44:22;;;;;;;;;;;;;;;-0.10;78.42;101457.66;5046109;28;1774;-84
2022/03/02 03:46:47;;;;;;;;;;;;;;;-0.05;78.43;101449.84;5040359;28;1606;-84
2022/03/02 03:49:12;;;;;;;;;;;;;;;-0.08;78.54;101447.53;5041671;28;1593;-83
2022/03/02 03:51:37;;;;;;;;;;;;;;;-0.02;78.45;101456.72;5046124;28;1573;-83
2022/03/02 03:54:02;;;;;;;;;;;;;;;0.08;78.38;101454.59;5049285;28;1440;-84
2022/03/02 03:56:30;;;;;;;;;;;;;;;0.04;78.65;101455.97;5038087;28;1875;-84
2022/03/02 03:58:55;;;;;;;;;;;;;;;0.02;78.46;101454.47;5038857;28;1357;-84
2022/03/02 04:01:21;;;;;;;;;;;;;;;0.11;78.55;101451.50;5038910;28;1740;-84
2022/03/02 04:03:46;;;;;;;;;;;;;;;0.12;78.42;101455.84;5037749;28;1446;-84
2022/03/02 04:06:11;;;;;;;;;;;;;;;0.13;78.46;101451.31;5039218;28;810;-84
2022/03/02 04:08:36;;;;;;;;;;;;;;;0.12;78.26;101457.72;5039374;28;1724;-84
2022/03/02 04:11:01;;;;;;;;;;;;;;;0.16;78.44;101457.16;5033370;28;1658;-84
2022/03/02 04:13:27;;;;;;;;;;;;;;;0.17;78.47;101453.41;5039961;28;1748;-84
2022/03/02 04:15:52;;;;;;;;;;;;;;;0.16;78.42;101457.16;5027631;28;1511;-84
2022/03/02 04:18:17;;;;;;;;;;;;;;;0.06;78.31;101453.09;5037427;28;1893;-84
2022/03/02 04:20:42;;;;;;;;;;;;;;;-0.12;78.75;101458.88;5037325;28;1542;-84
2022/03/02 04:23:10;;;;;;;;;;;;;;;-0.14;78.89;101455.53;5036426;28;1802;-84
2022/03/02 04:25:35;;;;;;;;;;;;;;;-0.12;78.72;101456.19;5031704;28;1552;-84
2022/03/02 04:28:00;;;;;;;;;;;;;;;-0.09;78.72;101443.19;5036675;28;1348;-84
2022/03/02 04:30:27;;;;;;;;;;;;;;;-0.04;78.86;101451.53;5037432;28;899;-84
2022/03/02 04:32:52;;;;;;;;;;;;;;;0.01;78.85;101450.94;5035731;28;1368;-84
2022/03/02 04:35:17;;;;;;;;;;;;;;;-0.07;78.88;101445.69;5032933;28;1259;-84
2022/03/02 04:37:43;;;;;;;;;;;;;;;-0.04;78.80;101448.00;5026461;28;1886;-84
2022/03/02 04:40:09;;;;;;;;;;;;;;;-0.07;78.90;101442.97;5036458;28;1231;-84
2022/03/02 04:42:34;;;;;;;;;;;;;;;-0.19;79.16;101434.56;5048108;28;1377;-84
2022/03/02 04:45:00;;;;;;;;;;;;;;;-0.10;79.04;101440.69;5021380;28;1800;-84
2022/03/02 04:47:25;;;;;;;;;;;;;;;-0.03;79.12;101434.38;5031988;28;1687;-84
2022/03/02 04:49:51;;;;;;;;;;;;;;;-0.01;79.13;101432.31;5035833;28;1734;-84
2022/03/02 04:52:16;;;;;;;;;;;;;;;0.00;78.99;101433.16;5032964;28;1319;-83
2022/03/02 04:57:25;;;;;;;;;;;;;;;-0.09;79.33;101432.44;5033322;28;1901;-84
2022/03/02 04:59:50;;;;;;;;;;;;;;;-0.01;79.13;101429.63;5036627;28;1678;-84
2022/03/02 05:02:17;;;;;;;;;;;;;;;0.07;79.05;101425.16;5055101;28;1245;-84
2022/03/02 05:04:42;;;;;;;;;;;;;;;0.07;79.00;101425.16;5043372;28;1574;-84
2022/03/02 05:07:07;;;;;;;;;;;;;;;0.03;79.16;101422.00;5055467;28;1692;-85
2022/03/02 05:09:32;;;;;;;;;;;;;;;-0.01;79.17;101421.56;5037667;28;710;-84
2022/03/02 05:11:57;;;;;;;;;;;;;;;0.05;79.18;101414.56;5037405;28;1615;-84
2022/03/02 05:14:23;;;;;;;;;;;;;;;0.10;79.20;101416.69;5035528;28;1510;-85
2022/03/02 05:16:48;;;;;;;;;;;;;;;0.09;78.89;101415.00;5017689;28;1890;-85
2022/03/02 05:19:13;;;;;;;;;;;;;;;0.07;79.04;101415.22;5034835;28;1504;-84
2022/03/02 05:21:38;;;;;;;;;;;;;;;0.04;78.95;101423.66;5038584;28;1244;-85
2022/03/02 05:24:03;;;;;;;;;;;;;;;0.04;79.13;101433.59;5039029;28;996;-85
2022/03/02 05:26:29;;;;;;;;;;;;;;;-0.02;79.28;101419.88;5053717;28;1259;-85
2022/03/02 05:28:54;;;;;;;;;;;;;;;-0.06;79.46;101425.81;5038375;28;1051;-85
2022/03/02 05:31:20;;;;;;;;;;;;;;;-0.05;79.47;101422.94;5038452;28;1039;-85
2022/03/02 05:33:45;;;;;;;;;;;;;;;-0.12;79.52;101421.19;5053716;28;1617;-86
2022/03/02 05:36:10;;;;;;;;;;;;;;;-0.27;79.53;101415.00;5030251;28;1266;-86
2022/03/02 05:38:35;;;;;;;;;;;;;;;-0.30;79.83;101413.53;5038400;28;1898;-86
2022/03/02 05:41:00;;;;;;;;;;;;;;;-0.18;80.01;101414.72;5053766;28;1008;-86
2022/03/02 05:43:27;;;;;;;;;;;;;;;-0.13;79.50;101412.28;5035921;28;1358;-86
2022/03/02 05:45:53;;;;;;;;;;;;;;;-0.22;79.53;101420.66;5035397;28;1311;-86
2022/03/02 05:48:18;;;;;;;;;;;;;;;-0.27;79.98;101418.53;5052835;28;1305;-86
2022/03/02 05:50:43;;;;;;;;;;;;;;;-0.28;80.10;101416.88;5034568;28;1297;-86
2022/03/02 05:53:08;;;;;;;;;;;;;;;-0.25;80.10;101419.16;5037870;28;1381;-86
2022/03/02 05:55:33;;;;;;;;;;;;;;;-0.32;80.12;101420.09;5049361;28;1550;-87
2022/03/02 05:57:59;;;;;;;;;;;;;;;-0.29;80.14;101419.72;5036277;28;1976;-87
2022/03/02 06:00:25;;;;;;;;;;;;;;;-0.13;80.01;101424.91;5035722;28;1522;-87
2022/03/02 06:02:50;;;;;;;;;;;;;;;-0.12;79.87;101423.88;5050212;28;1409;-85
2022/03/02 06:05:15;;;;;;;;;;;;;;;-0.16;80.00;101423.41;5051943;28;1376;-87
2022/03/02 06:07:40;;;;;;;;;;;;;;;-0.34;79.84;101425.66;5031878;28;1506;-86
2022/03/02 06:10:06;;;;;;;;;;;;;;;-0.35;80.44;101420.50;5035769;28;1406;-85
2022/03/02 06:12:31;;;;;;;;;;;;;;;-0.41;80.13;101420.19;5052785;28;1512;-86
2022/03/02 06:14:57;;;;;;;;;;;;;;;-0.42;80.28;101420.38;5052585;28;1330;-86
2022/03/02 06:17:22;;;;;;;;;;;;;;;-0.28;80.67;101418.72;5052159;28;1965;-86
2022/03/02 06:19:47;;;;;;;;;;;;;;;-0.20;80.49;101424.84;5037565;28;952;-86
2022/03/02 06:22:13;;;;;;;;;;;;;;;-0.24;80.17;101425.38;5037457;28;1280;-86
2022/03/02 06:24:39;;;;;;;;;;;;;;;-0.25;80.45;101426.41;5053259;28;1148;-86
2022/03/02 06:27:04;;;;;;;;;;;;;;;-0.34;80.12;101433.72;5051673;28;1240;-87
2022/03/02 06:29:29;;;;;;;;;;;;;;;-0.50;80.53;101421.31;5050989;28;1239;-86
2022/03/02 06:31:55;;;;;;;;;;;;;;;-0.43;80.81;101422.25;5050817;28;1264;-87
2022/03/02 06:34:20;;;;;;;;;;;;;;;-0.38;80.78;101422.53;5035611;28;821;-86
2022/03/02 06:36:49;;;;;;;;;;;;;;;-0.29;80.70;101427.81;5050570;28;1894;-86
2022/03/02 06:39:14;;;;;;;;;;;;;;;-0.19;80.35;101433.75;5050970;28;1179;-87
2022/03/02 06:41:53;;;;;;;;;;;;;;;-0.13;80.70;101431.13;5051106;28;1266;-87
2022/03/02 06:44:26;;;;;;;;;;;;;;;-0.09;80.26;101428.91;5035594;28;1055;-86
2022/03/02 06:46:57;;;;;;;;;;;;;;;-0.11;80.43;101428.25;5035374;28;892;-86
2022/03/02 06:49:28;;;;;;;;;;;;;;;-0.07;80.38;101430.38;5035037;28;1315;-85
2022/03/02 06:52:00;;;;;;;;;;;;;;;0.00;80.24;101422.41;5050994;28;1181;-87
2022/03/02 06:54:26;;;;;;;;;;;;;;;0.00;80.18;101423.19;5050544;28;1290;-86
2022/03/02 06:56:52;;;;;;;;;;;;;;;-0.08;80.13;101420.63;5034140;28;1902;-87
2022/03/02 06:59:28;;;;;;;;;;;;;;;-0.01;80.18;101431.50;5050936;28;1294;-87
2022/03/02 07:01:58;;;;;;;;;;;;;;;0.06;79.92;101429.72;5050840;28;1276;-86
2022/03/02 07:04:24;;;;;;;;;;;;;;;0.06;80.07;101424.31;5050761;28;1168;-86
2022/03/02 07:06:49;;;;;;;;;;;;;;;0.06;79.94;101431.56;5051637;28;1304;-86
2022/03/02 07:09:15;;;;;;;;;;;;;;;0.12;80.00;101431.63;5052101;28;1223;-86
2022/03/02 07:11:41;;;;;;;;;;;;;;;0.20;80.03;101428.00;5050478;28;1199;-87
2022/03/02 07:14:07;;;;;;;;;;;;;;;0.21;79.85;101435.03;5051034;28;1293;-86
2022/03/02 07:16:32;;;;;;;;;;;;;;;0.24;79.73;101431.97;5035967;28;1913;-86
2022/03/02 07:18:57;;;;;;;;;;;;;;;0.28;79.90;101434.09;5035743;28;794;-86
2022/03/02 07:21:24;;;;;;;;;;;;;;;0.27;79.63;101435.09;5051440;28;1212;-86
2022/03/02 07:23:55;;;;;;;;;;;;;;;0.34;79.85;101424.44;5050977;28;1330;-86
2022/03/02 07:26:21;;;;;;;;;;;;;;;0.41;79.53;101421.81;5036526;28;892;-86
2022/03/02 07:28:47;;;;;;;;;;;;;;;0.45;79.46;101423.06;5051379;28;1382;-86
2022/03/02 07:31:12;;;;;;;;;;;;;;;0.47;79.35;101429.09;5036358;28;999;-86
2022/03/02 07:33:39;;;;;;;;;;;;;;;0.51;79.21;101425.81;5051256;28;1270;-86
2022/03/02 07:36:04;;;;;;;;;;;;;;;0.50;79.18;101429.56;5051997;28;1397;-86
2022/03/02 07:38:30;;;;;;;;;;;;;;;0.38;79.38;101415.78;5033433;28;1965;-88
2022/03/02 07:40:56;;;;;;;;;;;;;;;0.34;79.42;101430.63;5049539;28;1251;-88
2022/03/02 07:43:21;;;;;;;;;;;;;;;0.51;79.39;101427.72;5049280;28;1219;-89
2022/03/02 07:45:46;;;;;;;;;;;;;;;0.51;79.24;101425.03;5049689;28;1191;-88
2022/03/02 07:48:12;;;;;;;;;;;;;;;0.47;78.75;101419.19;5034120;28;837;-89
2022/03/02 07:50:39;;;;;;;;;;;;;;;0.40;78.82;101403.97;5052361;28;1342;-88
2022/03/02 07:53:23;;;;;;;;;;;;;;;0.40;78.50;101412.06;5053348;28;1262;-88
2022/03/02 07:55:52;;;;;;;;;;;;;;;0.40;78.20;101410.19;5053331;28;1680;-88
2022/03/02 07:58:18;;;;;;;;;;;;;;;0.46;77.87;101414.81;5050691;28;1882;-89
2022/03/02 08:00:46;;;;;;;;;;;;;;;0.40;77.68;101412.88;5049347;28;1208;-88
2022/03/02 08:03:12;;;;;;;;;;;;;;;0.32;78.04;101413.00;5049205;28;1390;-88
2022/03/02 08:05:38;;;;;;;;;;;;;;;0.31;78.33;101420.25;5049105;28;1309;-88
2022/03/02 08:08:03;;;;;;;;;;;;;;;0.24;78.25;101416.66;5048899;28;1449;-88
2022/03/02 08:10:33;;;;;;;;;;;;;;;0.23;78.40;101412.31;5048998;28;1191;-89
2022/03/02 08:12:58;;;;;;;;;;;;;;;0.24;78.38;101413.97;5049289;28;1401;-89
2022/03/02 08:15:24;;;;;;;;;;;;;;;0.31;78.29;101420.25;5049223;28;1083;-88
2022/03/02 08:17:49;;;;;;;;;;;;;;;0.32;78.18;101418.41;5032343;28;1959;-88
2022/03/02 08:20:15;;;;;;;;;;;;;;;0.33;78.17;101409.31;5048928;28;1287;-88
2022/03/02 08:22:44;;;;;;;;;;;;;;;0.43;77.76;101407.09;5050359;28;1333;-88
2022/03/02 08:25:12;;;;;;;;;;;;;;;0.55;77.51;101415.50;5053240;28;1223;-89
2022/03/02 08:27:39;;;;;;;;;;;;;;;0.60;77.60;101423.84;5037278;28;939;-89
2022/03/02 08:30:06;;;;;;;;;;;;;;;0.64;76.82;101415.19;5052570;28;1314;-89
2022/03/02 08:32:34;;;;;;;;;;;;;;;0.68;76.10;101410.28;5052462;28;1205;-89
2022/03/02 08:34:59;;;;;;;;;;;;;;;0.72;75.81;101406.13;5052527;28;1251;-89
2022/03/02 08:37:26;;;;;;;;;;;;;;;0.70;75.48;101403.63;5052309;28;1968;-88
2022/03/02 08:39:51;;;;;;;;;;;;;;;0.76;75.15;101404.75;5052422;28;1326;-88
2022/03/02 08:42:17;;;;;;;;;;;;;;;0.78;74.94;101408.06;5052387;28;1262;-88
2022/03/02 08:44:44;;;;;;;;;;;;;;;0.82;74.61;101395.88;5052868;28;1354;-88
2022/03/02 08:47:10;;;;;;;;;;;;;;;0.92;74.16;101380.19;5052323;28;1214;-89
2022/03/02 08:49:35;;;;;;;;;;;;;;;0.99;73.86;101391.03;5052264;28;1184;-88
2022/03/02 08:52:00;;;;;;;;;;;;;;;1.03;73.78;101398.50;5052478;28;1280;-88
2022/03/02 08:54:26;;;;;;;;;;;;;;;1.18;73.70;101392.19;5037121;28;1040;-88
2022/03/02 08:56:52;;;;;;;;;;;;;;;1.31;72.92;101385.03;5036953;28;1952;-88
2022/03/02 08:59:18;;;;;;;;;;;;;;;1.48;72.46;101383.66;5052563;28;1287;-88
2022/03/02 09:01:47;;;;;;;;;;;;;;;1.64;71.89;101384.38;5052204;28;1222;-88
2022/03/02 09:04:13;;;;;;;;;;;;;;;1.76;71.48;101375.50;5052437;28;1208;-88
2022/03/02 09:06:39;;;;;;;;;;;;;;;1.88;71.57;101370.34;5053741;28;1342;-88
2022/03/02 09:09:05;;;;;;;;;;;;;;;2.03;71.13;101359.41;5053374;28;1348;-88
2022/03/02 09:11:30;;;;;;;;;;;;;;;2.12;71.42;101364.41;5036760;28;1300;-88
2022/03/02 09:13:55;;;;;;;;;;;;;;;2.28;70.70;101368.59;5052059;28;1016;-88
2022/03/02 09:16:21;;;;;;;;;;;;;;;2.37;70.66;101353.88;5052197;28;1235;-89
2022/03/02 09:18:46;;;;;;;;;;;;;;;2.43;70.55;101347.63;5052003;28;1898;-88
2022/03/02 09:21:12;;;;;;;;;;;;;;;2.56;69.96;101341.38;5052157;28;1421;-88
2022/03/02 09:23:40;;;;;;;;;;;;;;;2.62;69.78;101349.53;5051907;28;1206;-89
2022/03/02 09:26:07;;;;;;;;;;;;;;;2.65;69.40;101354.50;5051921;28;1314;-88
2022/03/02 09:28:34;;;;;;;;;;;;;;;2.72;69.23;101346.41;5051784;28;1478;-89
2022/03/02 09:31:02;;;;;;;;;;;;;;;2.73;69.12;101353.44;5051705;28;1243;-89
2022/03/02 09:33:27;;;;;;;;;;;;;;;2.78;69.38;101356.38;5051391;28;1262;-89
2022/03/02 09:35:53;;;;;;;;;;;;;;;2.83;69.13;101350.34;5050782;28;1223;-89
2022/03/02 09:38:19;;;;;;;;;;;;;;;2.88;69.31;101353.25;5051521;28;1949;-89
2022/03/02 09:40:48;;;;;;;;;;;;;;;2.91;68.96;101352.81;5051746;28;1267;-89
2022/03/02 09:43:16;;;;;;;;;;;;;;;2.96;68.74;101345.75;5051574;28;1203;-90
2022/03/02 09:45:42;;;;;;;;;;;;;;;3.02;68.47;101347.63;5051284;28;1177;-90
2022/03/02 09:48:12;;;;;;;;;;;;;;;3.13;68.48;101343.44;5051258;28;1262;-90
2022/03/02 09:50:39;;;;;;;;;;;;;;;3.25;68.33;101343.63;5051522;28;1322;-89
2022/03/02 09:53:08;;;;;;;;;;;;;;;3.33;67.94;101344.22;5055760;28;1341;-89
2022/03/02 09:55:35;;;;;;;;;;;;;;;3.40;67.60;101338.81;5064211;28;1389;-90
2022/03/02 09:58:00;;;;;;;;;;;;;;;3.43;67.63;101330.25;5054518;28;1977;-89
2022/03/02 10:00:27;;;;;;;;;;;;;;;3.51;67.49;101331.88;5050847;28;1302;-89
2022/03/02 10:02:56;;;;;;;;;;;;;;;3.51;68.13;101323.75;5051509;28;1267;-89
2022/03/02 10:05:25;;;;;;;;;;;;;;;3.53;67.96;101332.50;5051458;28;1255;-89
2022/03/02 10:07:58;;;;;;;;;;;;;;;3.56;67.75;101337.50;5051640;28;1262;-90
2022/03/02 10:10:24;;;;;;;;;;;;;;;3.55;67.24;101330.41;5051140;28;1221;-90
2022/03/02 10:12:50;;;;;;;;;;;;;;;3.59;67.29;101331.63;5051176;28;1252;-89
2022/03/02 10:15:16;;;;;;;;;;;;;;;3.62;67.04;101331.22;5035705;28;833;-89
2022/03/02 10:17:43;;;;;;;;;;;;;;;3.67;67.15;101334.09;5050721;28;1969;-89
2022/03/02 10:20:09;;;;;;;;;;;;;;;3.81;67.04;101338.44;5060812;23;1950;-85
2022/03/02 10:22:35;;;;;;;;;;;;;;;3.93;66.95;101343.97;5014767;28;1446;-87
2022/03/02 10:25:05;;;;;;;;;;;;;;;3.96;66.31;101340.84;5014422;28;1003;-86
2022/03/02 10:27:49;;;;;;;;;;;;;;;4.01;65.82;101341.84;5029804;28;1680;-87
2022/03/02 10:30:16;;;;;;;;;;;;;;;4.05;65.36;101347.69;5009792;28;1679;-86
2022/03/02 10:32:42;;;;;;;;;;;;;;;4.11;64.83;101344.94;4994743;28;1071;-85
2022/03/02 10:35:08;;;;;;;;;;;;;;;4.19;64.66;101343.84;4994565;28;991;-86
2022/03/02 10:37:48;;;;;;;;;;;;;;;4.23;64.14;101342.38;4994461;28;1966;-85
2022/03/02 10:40:24;;;;;;;;;;;;;;;4.31;64.23;101336.69;4994711;28;1257;-86
2022/03/02 10:42:53;;;;;;;;;;;;;;;4.42;63.85;101332.44;4994722;28;853;-87
2022/03/02 10:45:21;;;;;;;;;;;;;;;4.47;64.08;101332.59;4994329;28;782;-86
2022/03/02 10:47:46;;;;;;;;;;;;;;;4.52;63.91;101324.63;4993272;28;1305;-87
2022/03/02 10:50:11;;;;;;;;;;;;;;;4.60;63.72;101327.06;4994444;28;1272;-86
2022/03/02 10:52:37;;;;;;;;;;;;;;;4.60;63.41;101323.53;4994452;28;1194;-86
2022/03/02 10:55:10;;;;;;;;;;;;;;;4.60;63.31;101321.66;4986538;28;1770;-85
2022/03/02 10:57:36;;;;;;;;;;;;;;;4.67;63.19;101321.63;4974858;28;1890;-86
2022/03/02 11:00:09;;;;;;;;;;;;;;;4.70;62.78;101323.88;4974254;28;1317;-86
2022/03/02 11:02:37;;;;;;;;;;;;;;;4.75;62.77;101324.03;4992944;28;1460;-87
2022/03/02 11:05:03;;;;;;;;;;;;;;;4.76;62.03;101312.16;4992454;28;1384;-86
2022/03/02 11:07:28;;;;;;;;;;;;;;;4.78;61.93;101316.28;4992839;28;1650;-87
2022/03/02 11:09:53;;;;;;;;;;;;;;;4.84;61.59;101317.28;5009079;28;1480;-86
2022/03/02 11:12:20;;;;;;;;;;;;;;;4.85;61.27;101314.31;5008846;28;1206;-87
2022/03/02 11:15:03;;;;;;;;;;;;;;;4.89;61.10;101317.44;4993595;28;845;-86
2022/03/02 11:17:29;;;;;;;;;;;;;;;4.97;61.58;101308.19;4993531;28;1953;-86
2022/03/02 11:19:55;;;;;;;;;;;;;;;4.92;61.65;101301.56;4993398;28;1287;-86
2022/03/02 11:22:22;;;;;;;;;;;;;;;4.93;61.48;101308.63;4992197;28;1342;-85
2022/03/02 11:24:47;;;;;;;;;;;;;;;4.94;61.56;101304.03;4993425;28;904;-85
2022/03/02 11:27:30;;;;;;;;;;;;;;;4.95;61.48;101301.09;4993479;28;1217;-87
2022/03/02 11:30:07;;;;;;;;;;;;;;;4.99;61.09;101290.63;4990125;28;1405;-87
2022/03/02 11:32:34;;;;;;;;;;;;;;;4.94;60.95;101290.47;4993688;28;849;-86
2022/03/02 11:35:00;;;;;;;;;;;;;;;4.88;60.79;101289.47;4993407;28;838;-88
2022/03/02 11:37:25;;;;;;;;;;;;;;;4.88;60.85;101283.22;4993051;28;1886;-87
2022/03/02 11:39:50;;;;;;;;;;;;;;;4.84;60.70;101282.88;5008703;28;1278;-87
2022/03/02 11:42:15;;;;;;;;;;;;;;;4.86;59.82;101279.91;4993472;28;963;-86
2022/03/02 11:44:41;;;;;;;;;;;;;;;4.85;59.50;101273.63;5008233;28;1384;-85
2022/03/02 11:47:08;;;;;;;;;;;;;;;4.90;59.29;101279.25;4993124;28;1000;-86
2022/03/02 11:49:39;;;;;;;;;;;;;;;4.93;58.43;101264.41;5008194;28;1230;-87
2022/03/02 11:52:05;;;;;;;;;;;;;;;4.99;58.34;101262.66;4993063;28;1045;-86
2022/03/02 11:54:41;;;;;;;;;;;;;;;5.01;58.34;101268.72;5007947;28;794;-87
2022/03/02 11:57:06;;;;;;;;;;;;;;;4.95;57.57;101259.56;4993258;28;1957;-86
2022/03/02 11:59:35;;;;;;;;;;;;;;;4.94;57.37;101255.19;4997017;28;1221;-86
2022/03/02 12:02:01;;;;;;;;;;;;;;;4.92;57.17;101250.00;4996972;28;825;-84
2022/03/02 12:04:26;;;;;;;;;;;;;;;5.01;55.88;101249.72;5012095;28;942;-85
2022/03/02 12:06:52;;;;;;;;;;;;;;;5.15;56.21;101245.78;4996922;28;1103;-86
2022/03/02 12:09:27;;;;;;;;;;;;;;;5.23;55.06;101238.16;4997019;28;1287;-86
2022/03/02 12:12:04;;;;;;;;;;;;;;;5.37;53.99;101236.13;4996831;28;904;-84
2022/03/02 12:14:37;;;;;;;;;;;;;;;5.56;52.84;101221.44;4996307;28;1227;-85
2022/03/02 12:17:11;;;;;;;;;;;;;;;5.69;51.57;101215.03;4997150;28;1945;-88
2022/03/02 12:19:36;;;;;;;;;;;;;;;5.85;50.58;101208.94;4995749;28;1331;-86
2022/03/02 12:22:05;;;;;;;;;;;;;;;5.88;49.83;101204.94;4996180;28;1274;-85
2022/03/02 12:24:32;;;;;;;;;;;;;;;5.92;49.39;101203.41;4995437;28;1257;-86
2022/03/02 12:27:07;;;;;;;;;;;;;;;5.96;49.21;101199.16;4996205;28;1164;-85
2022/03/02 12:29:33;;;;;;;;;;;;;;;6.01;48.27;101192.00;4996267;28;1374;-86
2022/03/02 12:32:04;;;;;;;;;;;;;;;6.01;48.14;101191.16;4993012;28;1605;-86
2022/03/02 12:34:32;;;;;;;;;;;;;;;6.06;48.84;101192.09;4996053;28;1031;-86
2022/03/02 12:36:58;;;;;;;;;;;;;;;6.03;47.88;101189.88;4985251;28;1894;-86
2022/03/02 12:39:23;;;;;;;;;;;;;;;6.02;48.22;101195.53;5017684;28;1477;-85
2022/03/02 12:41:48;;;;;;;;;;;;;;;5.99;47.57;101183.22;4994231;28;1468;-86
2022/03/02 12:44:14;;;;;;;;;;;;;;;5.90;47.61;101191.94;4995999;28;1259;-87
2022/03/02 12:46:39;;;;;;;;;;;;;;;5.87;47.66;101192.41;4997750;28;1284;-86
2022/03/02 12:49:05;;;;;;;;;;;;;;;5.89;47.70;101184.84;4996285;28;1463;-87
2022/03/02 12:51:31;;;;;;;;;;;;;;;5.88;48.30;101178.59;4994971;28;1435;-86
2022/03/02 12:53:56;;;;;;;;;;;;;;;5.88;48.05;101172.31;4996032;28;1337;-86